Time;durP1;ratioP1;P1;durP2;ratioP2;P2;SDS_P1;SDS_P2;PMS_P1;PMS_P2;Temp;Humidity;BMP_temperature;BMP_pressure;BME280_temperature;BME280_humidity;BME280_pressure;Samples;Min_cycle;Max_cycle;Signal;HPM_P1;HPM_P2
2022/01/23 00:00:16;;;;;;;17.85;10.50;;;7.10;78.20;;;;;;4998619;28;20240;-74
2022/01/23 00:02:43;;;;;;;19.20;10.73;;;7.00;78.40;;;;;;5001920;28;20085;-73
2022/01/23 00:05:09;;;;;;;19.52;9.70;;;7.10;78.30;;;;;;5007585;28;20034;-75
2022/01/23 00:07:35;;;;;;;21.80;11.10;;;7.10;78.10;;;;;;5006712;28;20053;-74
2022/01/23 00:10:04;;;;;;;18.70;10.52;;;7.10;78.50;;;;;;4990415;28;20582;-74
2022/01/23 00:12:35;;;;;;;17.15;10.40;;;7.10;78.50;;;;;;5002338;28;20417;-74
2022/01/23 00:17:45;;;;;;;22.20;11.32;;;7.10;78.60;;;;;;5007295;28;20952;-75
2022/01/23 00:20:12;;;;;;;21.70;10.55;;;7.10;78.70;;;;;;5032274;28;20417;-75
2022/01/23 00:22:49;;;;;;;19.63;10.98;;;7.00;78.80;;;;;;5046145;28;20152;-74
2022/01/23 00:30:46;;;;;;;22.15;10.85;;;7.00;78.60;;;;;;5038019;28;20060;-75
2022/01/23 00:33:13;;;;;;;23.10;10.68;;;7.00;79.10;;;;;;5039816;28;20021;-75
2022/01/23 00:35:40;;;;;;;21.83;10.85;;;6.90;79.30;;;;;;5040788;28;20589;-75
2022/01/23 00:38:08;;;;;;;21.58;11.23;;;6.90;79.70;;;;;;5042355;28;20540;-74
2022/01/23 00:40:36;;;;;;;21.08;10.57;;;6.90;80.10;;;;;;5039108;28;20029;-74
2022/01/23 00:43:06;;;;;;;23.83;11.55;;;6.90;79.60;;;;;;5038885;28;20029;-74
2022/01/23 00:45:34;;;;;;;24.15;12.27;;;6.90;79.70;;;;;;5037416;28;20083;-74
2022/01/23 00:48:04;;;;;;;19.55;11.02;;;6.90;79.90;;;;;;5033248;28;20103;-74
2022/01/23 00:50:33;;;;;;;23.73;12.30;;;6.90;80.20;;;;;;5036174;28;20115;-75
2022/01/23 00:53:00;;;;;;;22.70;12.25;;;6.80;80.00;;;;;;5034612;28;20025;-75
2022/01/23 00:55:25;;;;;;;19.98;11.68;;;6.80;80.90;;;;;;5038528;28;20026;-75
2022/01/23 00:57:51;;;;;;;23.25;12.20;;;6.80;80.80;;;;;;5033599;28;20032;-74
2022/01/23 01:00:17;;;;;;;22.23;11.13;;;6.80;80.90;;;;;;5036137;28;20084;-74
2022/01/23 01:02:43;;;;;;;20.83;11.18;;;6.70;81.10;;;;;;5034548;28;20060;-75
2022/01/23 01:05:10;;;;;;;25.45;12.25;;;6.70;81.10;;;;;;5038086;28;20044;-74
2022/01/23 01:07:35;;;;;;;23.05;11.20;;;6.70;81.30;;;;;;5036973;28;20161;-74
2022/01/23 01:10:08;;;;;;;20.15;11.85;;;6.70;81.50;;;;;;5033869;28;20464;-75
2022/01/23 01:12:57;;;;;;;23.15;11.93;;;6.70;81.80;;;;;;5034450;28;20021;-75
2022/01/23 01:32:09;;;;;;;23.20;12.00;;;6.50;82.80;;;;;;5013436;28;20053;-74
2022/01/23 01:37:01;;;;;;;25.02;12.65;;;6.60;82.50;;;;;;5013400;28;20029;-74
2022/01/23 01:39:28;;;;;;;19.88;11.65;;;6.50;82.30;;;;;;5009572;28;20573;-75
2022/01/23 01:41:54;;;;;;;20.75;12.18;;;6.60;82.20;;;;;;5013769;28;20485;-74
2022/01/23 01:44:22;;;;;;;21.60;12.82;;;6.70;82.30;;;;;;5015532;28;20446;-74
2022/01/23 01:46:48;;;;;;;23.02;13.07;;;6.60;82.30;;;;;;5014383;28;20026;-75
2022/01/23 01:49:14;;;;;;;20.67;12.15;;;6.60;82.20;;;;;;5014204;28;20105;-74
2022/01/23 01:51:43;;;;;;;21.52;12.02;;;6.60;82.10;;;;;;5021051;28;20079;-74
2022/01/23 01:54:15;;;;;;;22.67;12.15;;;6.70;82.30;;;;;;5044730;28;20033;-74
2022/01/23 01:56:51;;;;;;;17.42;10.57;;;6.60;82.30;;;;;;5048187;28;20029;-74
2022/01/23 02:09:36;;;;;;;20.75;11.82;;;6.60;82.30;;;;;;5053223;28;20040;-75
2022/01/23 02:22:46;;;;;;;21.45;12.82;;;6.50;83.20;;;;;;5046732;28;20848;-74
2022/01/23 02:55:22;;;;;;;21.88;12.60;;;6.30;85.20;;;;;;4988703;28;19963;-75
2022/01/23 03:00:19;;;;;;;24.80;13.38;;;6.20;85.50;;;;;;4986592;28;20129;-73
2022/01/23 03:02:51;;;;;;;23.80;13.77;;;6.20;85.80;;;;;;4985577;28;20158;-74
2022/01/23 03:10:39;;;;;;;22.58;13.07;;;6.20;86.00;;;;;;5021381;28;20037;-74
2022/01/23 03:26:29;;;;;;;22.50;12.85;;;6.20;86.20;;;;;;5046543;28;20106;-74
2022/01/23 03:31:40;;;;;;;22.50;14.00;;;6.10;86.60;;;;;;5049702;28;20044;-75
2022/01/23 03:34:06;;;;;;;27.58;13.73;;;6.10;87.20;;;;;;5046137;28;20022;-75
2022/01/23 03:36:32;;;;;;;22.75;13.50;;;6.10;87.50;;;;;;5054563;28;20029;-75
2022/01/23 03:38:58;;;;;;;19.73;12.52;;;6.10;87.30;;;;;;5050123;28;20070;-75
2022/01/23 03:41:24;;;;;;;26.95;13.70;;;6.10;87.20;;;;;;5046254;28;20029;-74
2022/01/23 03:43:50;;;;;;;28.08;14.07;;;6.10;87.60;;;;;;5049148;28;20478;-75
2022/01/23 03:46:47;;;;;;;24.55;14.23;;;6.10;87.70;;;;;;5050519;28;20083;-75
2022/01/23 03:49:31;;;;;;;24.52;12.55;;;6.10;87.80;;;;;;5045789;28;20105;-75
2022/01/23 03:52:04;;;;;;;25.48;13.60;;;6.10;87.70;;;;;;5052906;28;20032;-75
2022/01/23 03:54:30;;;;;;;27.20;14.43;;;6.10;87.90;;;;;;5053431;28;20027;-75
2022/01/23 03:56:58;;;;;;;25.00;14.25;;;6.10;87.90;;;;;;5049662;28;20283;-75
2022/01/23 03:59:25;;;;;;;23.30;14.02;;;6.00;87.60;;;;;;5041122;28;20028;-74
2022/01/23 04:01:51;;;;;;;22.75;14.13;;;6.00;88.10;;;;;;5048863;28;20029;-74
2022/01/23 04:04:35;;;;;;;25.50;13.93;;;6.00;88.20;;;;;;5049915;28;20096;-74
2022/01/23 04:07:01;;;;;;;;;;;6.00;88.30;;;;;;5045276;28;20486;-74
2022/01/23 04:09:27;;;;;;;22.65;12.90;;;6.00;88.40;;;;;;5052546;28;19913;-74
2022/01/23 04:11:53;;;;;;;23.90;13.98;;;6.00;88.50;;;;;;5047732;28;20031;-74
2022/01/23 04:14:20;;;;;;;27.67;14.68;;;6.00;88.70;;;;;;5045202;28;20032;-74
2022/01/23 04:17:16;;;;;;;26.08;14.48;;;6.10;88.30;;;;;;5047961;28;20029;-74
2022/01/23 04:59:49;;;;;;;26.98;15.45;;;5.90;89.00;;;;;;5046099;28;20083;-74
2022/01/23 05:04:53;;;;;;;23.42;14.32;;;5.90;89.10;;;;;;5052432;28;20045;-74
2022/01/23 05:07:19;;;;;;;27.17;14.90;;;5.80;89.00;;;;;;5049819;28;20456;-75
2022/01/23 05:09:44;;;;;;;23.05;14.93;;;5.90;89.50;;;;;;5047512;28;20497;-75
2022/01/23 05:12:12;;;;;;;23.98;14.23;;;5.80;89.50;;;;;;5047169;28;20104;-74
2022/01/23 05:14:44;;;;;;;25.88;13.75;;;5.90;89.60;;;;;;5045139;28;20104;-75
2022/01/23 05:17:13;;;;;;;26.67;14.35;;;5.90;89.60;;;;;;5045477;28;20013;-74
2022/01/23 05:19:40;;;;;;;27.88;13.80;;;5.90;90.10;;;;;;5052449;28;20029;-74
2022/01/23 05:24:55;;;;;;;26.90;14.48;;;5.80;89.70;;;;;;5050744;28;20074;-75
2022/01/23 05:27:22;;;;;;;25.52;15.07;;;5.80;90.00;;;;;;5048943;28;20040;-75
2022/01/23 05:29:49;;;;;;;25.17;15.43;;;5.70;90.20;;;;;;5043896;28;20492;-74
2022/01/23 05:32:15;;;;;;;24.70;13.50;;;5.80;90.30;;;;;;5044151;28;20424;-75
2022/01/23 05:34:42;;;;;;;26.70;14.82;;;5.70;90.20;;;;;;5046075;28;20038;-75
2022/01/23 05:37:08;;;;;;;25.33;14.25;;;5.70;90.10;;;;;;5049956;28;20112;-74
2022/01/23 05:39:34;;;;;;;23.80;14.65;;;5.70;90.40;;;;;;5050415;28;20108;-74
2022/01/23 05:42:09;;;;;;;25.05;15.20;;;5.70;90.30;;;;;;5047230;28;20021;-75
2022/01/23 05:44:40;;;;;;;26.17;15.43;;;5.70;90.30;;;;;;5045890;28;20045;-75
2022/01/23 05:47:07;;;;;;;22.13;13.77;;;5.70;90.20;;;;;;5051574;28;20516;-75
2022/01/23 05:49:33;;;;;;;24.85;13.77;;;5.70;90.40;;;;;;5051391;28;20033;-75
2022/01/23 05:51:59;;;;;;;22.98;14.05;;;5.70;90.40;;;;;;5052302;28;20033;-75
2022/01/23 05:54:26;;;;;;;23.92;14.35;;;5.70;90.40;;;;;;5052940;28;20021;-75
2022/01/23 05:56:51;;;;;;;25.80;13.90;;;5.70;90.30;;;;;;5052511;28;20035;-75
2022/01/23 05:59:20;;;;;;;24.05;15.05;;;5.60;90.20;;;;;;5046531;28;20014;-75
2022/01/23 06:01:46;;;;;;;24.05;14.18;;;5.50;90.60;;;;;;5052070;28;20029;-74
2022/01/23 06:04:13;;;;;;;22.90;14.13;;;5.50;90.80;;;;;;5053250;28;20116;-74
2022/01/23 06:06:39;;;;;;;26.48;14.38;;;5.50;90.80;;;;;;5052879;28;20033;-74
2022/01/23 06:09:05;;;;;;;27.38;15.27;;;5.40;90.80;;;;;;5052898;28;20036;-75
2022/01/23 06:11:30;;;;;;;25.75;13.85;;;5.30;91.00;;;;;;5051288;28;20497;-75
2022/01/23 06:13:56;;;;;;;25.35;14.15;;;5.40;91.20;;;;;;5052684;28;20078;-75
2022/01/23 06:16:22;;;;;;;26.27;14.02;;;5.40;91.10;;;;;;5053465;28;20124;-75
2022/01/23 06:18:47;;;;;;;27.98;14.25;;;5.30;91.10;;;;;;5052611;28;20107;-74
2022/01/23 06:21:18;;;;;;;27.13;13.75;;;5.30;91.20;;;;;;5053123;28;20405;-74
2022/01/23 06:23:44;;;;;;;23.75;14.63;;;5.40;91.10;;;;;;5052587;28;20069;-74
2022/01/23 06:26:10;;;;;;;21.80;13.20;;;5.30;91.00;;;;;;5051304;28;20507;-75
2022/01/23 06:28:53;;;;;;;23.77;14.70;;;5.30;91.20;;;;;;5056986;28;20037;-74
2022/01/23 06:31:18;;;;;;;24.48;13.68;;;5.30;91.20;;;;;;5052465;28;20524;-74
2022/01/23 06:33:44;;;;;;;27.50;14.90;;;5.30;91.60;;;;;;5056571;28;20021;-75
2022/01/23 06:36:10;;;;;;;25.88;15.20;;;5.20;91.70;;;;;;5056996;28;20053;-74
2022/01/23 06:38:38;;;;;;;27.13;13.82;;;5.20;91.50;;;;;;5055460;28;20029;-74
2022/01/23 06:41:04;;;;;;;24.13;14.32;;;5.30;91.50;;;;;;5055662;28;20036;-74
2022/01/23 06:43:30;;;;;;;24.92;14.35;;;5.30;91.40;;;;;;5056924;28;20029;-75
2022/01/23 06:45:56;;;;;;;23.63;14.52;;;5.20;91.40;;;;;;5056772;28;20037;-75
2022/01/23 06:48:21;;;;;;;25.17;14.60;;;5.20;91.60;;;;;;5057376;28;20027;-75
2022/01/23 06:50:47;;;;;;;26.98;14.35;;;5.20;91.70;;;;;;5056474;28;20042;-76
2022/01/23 06:53:13;;;;;;;25.63;13.77;;;5.20;91.70;;;;;;5051131;28;20508;-75
2022/01/23 06:55:38;;;;;;;25.80;15.23;;;5.20;91.70;;;;;;5054902;28;20453;-73
2022/01/23 06:58:04;;;;;;;27.52;15.40;;;5.20;91.60;;;;;;5056245;28;20021;-74
2022/01/23 07:00:32;;;;;;;26.02;15.45;;;5.20;91.80;;;;;;5055821;28;20095;-73
2022/01/23 07:02:59;;;;;;;26.10;13.25;;;5.20;91.70;;;;;;5056594;28;20568;-73
2022/01/23 07:05:25;;;;;;;23.17;13.85;;;5.10;91.70;;;;;;5053335;28;20059;-72
2022/01/23 07:07:51;;;;;;;25.58;14.57;;;5.10;91.80;;;;;;5055028;28;20092;-73
2022/01/23 07:10:18;;;;;;;27.10;14.60;;;5.20;92.00;;;;;;5051819;28;20120;-73
2022/01/23 07:12:44;;;;;;;25.67;15.30;;;;;;;;;;5052072;28;20430;-73
2022/01/23 07:15:10;;;;;;;28.38;14.50;;;5.10;91.80;;;;;;5056959;28;20024;-73
2022/01/23 07:17:42;;;;;;;27.75;14.88;;;5.10;91.90;;;;;;5045457;28;20419;-73
2022/01/23 07:20:09;;;;;;;26.70;14.52;;;5.10;92.10;;;;;;5051996;28;20543;-74
2022/01/23 07:22:35;;;;;;;28.67;15.32;;;5.10;92.00;;;;;;5050750;28;20022;-74
2022/01/23 07:25:03;;;;;;;24.17;13.70;;;5.10;92.00;;;;;;5054139;28;20045;-73
2022/01/23 07:27:40;;;;;;;26.58;14.63;;;5.20;91.90;;;;;;5056838;28;20024;-73
2022/01/23 07:30:10;;;;;;;27.42;15.25;;;5.20;91.80;;;;;;5054536;28;20028;-73
2022/01/23 07:32:36;;;;;;;24.00;14.18;;;5.20;91.90;;;;;;5053772;28;20017;-74
2022/01/23 07:35:01;;;;;;;27.33;15.98;;;5.20;91.70;;;;;;5055790;28;20029;-74
2022/01/23 07:37:27;;;;;;;26.83;15.55;;;5.30;91.80;;;;;;5056548;28;20040;-73
2022/01/23 07:39:53;;;;;;;27.15;14.98;;;5.20;91.80;;;;;;5056206;28;20029;-73
2022/01/23 07:42:18;;;;;;;28.45;15.50;;;5.20;91.70;;;;;;5048525;28;20543;-73
2022/01/23 07:44:44;;;;;;;29.83;16.05;;;5.20;91.90;;;;;;5054983;28;20057;-74
2022/01/23 07:47:10;;;;;;;26.70;15.57;;;5.20;91.90;;;;;;5046143;28;20564;-73
2022/01/23 07:49:36;;;;;;;27.73;14.88;;;5.30;91.90;;;;;;5056753;28;20393;-73
2022/01/23 07:52:04;;;;;;;27.60;15.48;;;5.30;91.80;;;;;;5048420;28;20032;-73
2022/01/23 07:54:29;;;;;;;28.33;15.57;;;5.20;92.10;;;;;;5047623;28;20028;-73
2022/01/23 07:56:55;;;;;;;31.58;17.98;;;5.30;92.10;;;;;;5056023;28;20370;-73
2022/01/23 07:59:21;;;;;;;32.58;16.75;;;5.30;91.90;;;;;;5044520;28;20064;-73
2022/01/23 08:01:46;;;;;;;33.65;18.83;;;5.40;91.90;;;;;;5050790;28;20033;-73
2022/01/23 08:04:12;;;;;;;32.95;17.15;;;5.40;91.60;;;;;;5046754;28;20048;-73
2022/01/23 08:06:46;;;;;;;32.72;18.00;;;5.60;91.70;;;;;;5048677;28;20112;-74
2022/01/23 08:09:12;;;;;;;31.40;17.90;;;5.60;91.40;;;;;;5050694;28;20024;-73
2022/01/23 08:11:38;;;;;;;32.78;16.83;;;5.70;91.30;;;;;;5045618;28;20037;-73
2022/01/23 08:14:04;;;;;;;28.30;16.35;;;5.80;91.30;;;;;;5050430;28;20591;-73
2022/01/23 08:16:29;;;;;;;31.80;17.90;;;5.80;91.20;;;;;;5047881;28;20446;-73
2022/01/23 08:18:55;;;;;;;32.50;17.38;;;5.80;91.50;;;;;;5048909;28;20126;-73
2022/01/23 08:21:21;;;;;;;28.00;15.50;;;5.90;91.30;;;;;;5051841;28;20021;-73
2022/01/23 08:23:47;;;;;;;27.08;16.10;;;6.10;90.80;;;;;;5046713;28;20048;-72
2022/01/23 08:26:12;;;;;;;28.80;16.10;;;6.20;90.60;;;;;;5047825;28;20102;-73
2022/01/23 08:28:38;;;;;;;28.15;16.00;;;6.30;90.30;;;;;;5049428;28;20545;-72
2022/01/23 08:31:04;;;;;;;30.50;16.70;;;6.50;90.10;;;;;;5047295;28;20029;-72
2022/01/23 08:33:29;;;;;;;27.65;15.52;;;6.50;89.80;;;;;;5055836;28;20048;-72
2022/01/23 08:35:57;;;;;;;30.10;16.98;;;6.70;89.30;;;;;;5055540;28;20033;-71
2022/01/23 08:38:24;;;;;;;32.28;17.10;;;6.90;88.90;;;;;;5047270;28;20013;-72
2022/01/23 08:41:49;;;;;;;26.05;14.98;;;7.60;87.40;;;;;;5050977;28;20064;-72
2022/01/23 08:43:46;;;;;;;30.05;15.00;;;9.70;79.20;;;;;;5049434;28;20132;-72
2022/01/23 08:46:12;;;;;;;27.13;14.73;;;12.90;65.00;;;;;;5050636;28;20045;-71
2022/01/23 08:48:40;;;;;;;31.40;15.70;;;15.00;57.90;;;;;;5054526;28;20048;-72
2022/01/23 08:51:06;;;;;;;25.27;15.43;;;16.50;54.10;;;;;;5051436;28;20450;-73
2022/01/23 08:53:31;;;;;;;26.52;15.35;;;17.00;51.30;;;;;;5049148;28;20108;-73
2022/01/23 08:55:57;;;;;;;25.00;15.50;;;17.80;49.70;;;;;;5050265;28;20363;-73
2022/01/23 08:58:23;;;;;;;23.45;14.75;;;17.80;48.20;;;;;;5049749;28;20029;-74
2022/01/23 09:00:49;;;;;;;22.83;13.60;;;18.00;47.30;;;;;;5053127;28;20029;-75
2022/01/23 09:03:15;;;;;;;20.92;13.50;;;18.40;47.10;;;;;;5052429;28;20024;-76
2022/01/23 09:05:40;;;;;;;24.73;15.48;;;17.60;47.40;;;;;;5047939;28;20044;-71
2022/01/23 09:08:06;;;;;;;25.33;15.82;;;16.30;49.90;;;;;;5040635;28;20034;-71
2022/01/23 09:10:40;;;;;;;25.80;15.45;;;15.10;53.60;;;;;;5048069;28;20032;-72
2022/01/23 09:13:28;;;;;;;22.65;13.93;;;14.00;56.10;;;;;;5047570;28;20037;-72
2022/01/23 09:15:54;;;;;;;22.42;13.70;;;13.20;58.20;;;;;;5046609;28;20032;-72
2022/01/23 09:18:19;;;;;;;22.20;14.00;;;13.00;59.40;;;;;;5050720;28;20029;-72
2022/01/23 09:20:45;;;;;;;21.35;14.32;;;12.60;60.70;;;;;;5043959;28;20082;-72
2022/01/23 09:23:11;;;;;;;23.33;14.20;;;12.40;61.40;;;;;;5047771;28;20036;-72
2022/01/23 09:25:36;;;;;;;25.48;15.02;;;12.20;62.10;;;;;;5046790;28;20467;-72
2022/01/23 09:28:04;;;;;;;21.65;14.05;;;12.20;62.70;;;;;;5048139;28;20030;-72
2022/01/23 09:30:35;;;;;;;20.85;13.48;;;12.10;62.10;;;;;;5051983;28;20052;-73
2022/01/23 09:33:02;;;;;;;22.02;14.05;;;12.10;62.00;;;;;;5047985;28;20396;-72
2022/01/23 09:35:28;;;;;;;20.58;13.30;;;12.00;62.40;;;;;;5043428;28;20021;-72
2022/01/23 09:37:53;;;;;;;21.52;13.40;;;12.00;63.10;;;;;;5048730;28;20375;-72
2022/01/23 09:40:19;;;;;;;19.92;13.68;;;11.90;63.10;;;;;;5046868;28;20029;-72
2022/01/23 09:42:51;;;;;;;24.90;14.45;;;11.90;63.40;;;;;;5051114;28;20018;-72
2022/01/23 09:45:18;;;;;;;22.75;14.02;;;11.80;63.30;;;;;;5047413;28;20391;-72
2022/01/23 09:47:44;;;;;;;21.77;14.45;;;11.90;63.40;;;;;;5043126;28;20020;-72
2022/01/23 09:50:12;;;;;;;23.95;14.77;;;11.80;63.10;;;;;;5047052;28;20025;-72
2022/01/23 09:52:39;;;;;;;24.38;15.20;;;11.90;63.30;;;;;;5048598;28;20041;-72
2022/01/23 09:55:10;;;;;;;22.63;15.10;;;12.00;63.80;;;;;;5048465;28;20021;-72
2022/01/23 09:57:47;;;;;;;25.38;15.00;;;12.00;63.70;;;;;;5052620;28;20513;-72
2022/01/23 10:00:25;;;;;;;25.10;14.65;;;12.10;63.50;;;;;;5051386;28;20075;-72
2022/01/23 10:02:51;;;;;;;25.10;15.20;;;12.30;63.10;;;;;;5049621;28;20538;-72
2022/01/23 10:05:18;;;;;;;23.02;14.18;;;12.30;62.90;;;;;;5049619;28;20037;-72
2022/01/23 10:07:45;;;;;;;25.83;15.00;;;12.40;62.60;;;;;;5050472;28;20017;-72
2022/01/23 10:10:17;;;;;;;27.00;14.80;;;12.50;61.90;;;;;;5052905;28;20096;-72
2022/01/23 10:12:50;;;;;;;24.20;14.65;;;12.50;62.10;;;;;;5056621;28;20025;-72
2022/01/23 10:15:17;;;;;;;24.25;15.45;;;12.10;62.30;;;;;;5054605;28;20063;-73
2022/01/23 10:17:44;;;;;;;22.83;14.77;;;12.40;62.40;;;;;;5049738;28;20501;-73
2022/01/23 10:20:11;;;;;;;23.00;13.70;;;12.60;62.20;;;;;;5050058;28;20071;-72
2022/01/23 10:22:40;;;;;;;713.47;91.80;;;12.70;61.50;;;;;;5048535;28;20044;-72
2022/01/23 10:25:20;;;;;;;34.35;14.32;;;12.80;60.80;;;;;;5048041;28;20117;-71
2022/01/23 10:28:06;;;;;;;22.88;14.13;;;13.30;60.30;;;;;;5048254;28;20447;-71
2022/01/23 10:30:38;;;;;;;25.85;14.48;;;13.50;59.60;;;;;;5055169;28;20029;-71
2022/01/23 10:33:07;;;;;;;24.33;14.20;;;13.20;59.70;;;;;;5051605;28;20021;-71
2022/01/23 10:35:34;;;;;;;23.88;14.70;;;13.40;59.10;;;;;;5038494;28;20021;-71
2022/01/23 10:38:14;;;;;;;25.48;14.60;;;13.40;59.20;;;;;;5046872;28;20025;-71
2022/01/23 10:40:48;;;;;;;22.38;14.52;;;12.90;59.60;;;;;;5050206;28;20022;-70
2022/01/23 10:48:35;;;;;;;27.27;15.00;;;13.10;60.20;;;;;;5049924;28;20393;-70
2022/01/23 10:51:25;;;;;;;23.15;14.38;;;13.00;59.90;;;;;;5049525;28;20039;-71
2022/01/23 10:54:22;;;;;;;29.33;15.73;;;13.10;59.80;;;;;;5048669;28;20396;-71
2022/01/23 10:57:00;;;;;;;30.38;15.07;;;13.10;60.10;;;;;;5047680;28;20041;-70
2022/01/23 10:59:37;;;;;;;27.35;15.50;;;13.40;59.80;;;;;;5043129;28;20029;-71
2022/01/23 11:02:08;;;;;;;29.80;18.27;;;13.40;59.50;;;;;;5055305;28;20025;-70
2022/01/23 11:04:35;;;;;;;24.70;15.05;;;13.70;59.10;;;;;;5056157;28;20040;-70
2022/01/23 11:07:05;;;;;;;22.98;14.30;;;13.60;58.60;;;;;;5050635;28;20049;-71
2022/01/23 11:09:36;;;;;;;23.15;14.32;;;13.60;58.30;;;;;;5048857;28;20029;-71
2022/01/23 11:17:51;;;;;;;22.15;14.18;;;13.90;58.30;;;;;;4993247;28;20053;-70
2022/01/23 11:20:33;;;;;;;21.67;14.23;;;13.80;58.10;;;;;;4993616;28;20037;-71
2022/01/23 11:23:23;;;;;;;25.23;14.20;;;13.90;58.40;;;;;;4993492;28;20034;-70
2022/01/23 11:25:51;;;;;;;23.50;13.35;;;14.20;57.90;;;;;;4994902;28;20042;-70
2022/01/23 11:28:18;;;;;;;24.65;13.95;;;14.20;57.30;;;;;;4992771;28;20034;-72
2022/01/23 11:30:46;;;;;;;22.63;14.50;;;14.30;56.70;;;;;;4992996;28;20392;-72
2022/01/23 11:33:16;;;;;;;22.10;14.15;;;14.40;56.70;;;;;;4992663;28;20496;-73
2022/01/23 11:35:43;;;;;;;22.88;13.82;;;14.30;57.50;;;;;;4992129;28;20038;-72
2022/01/23 11:38:14;;;;;;;21.42;14.07;;;14.50;56.80;;;;;;4991736;28;20030;-73
2022/01/23 11:54:51;;;;;;;20.33;12.38;;;15.70;53.90;;;;;;5048314;28;20086;-75
2022/01/23 11:57:45;;;;;;;20.80;12.63;;;16.00;54.10;;;;;;5048687;28;20028;-74
2022/01/23 12:00:28;;;;;;;22.23;13.73;;;15.90;53.50;;;;;;5045391;28;20378;-72
2022/01/23 12:03:18;;;;;;;20.05;12.77;;;16.00;53.60;;;;;;5049674;28;20037;-74
2022/01/23 12:05:49;;;;;;;21.98;13.13;;;16.00;53.60;;;;;;5047108;28;20041;-74
2022/01/23 12:08:33;;;;;;;25.67;14.07;;;16.20;53.40;;;;;;5040921;28;20025;-73
2022/01/23 12:19:10;;;;;;;20.40;13.27;;;16.20;52.60;;;;;;5043597;28;20073;-70
2022/01/23 12:21:37;;;;;;;21.60;13.23;;;16.20;53.60;;;;;;5036912;28;20128;-70
2022/01/23 12:24:05;;;;;;;23.02;14.15;;;16.30;52.60;;;;;;5047025;28;20171;-71
2022/01/23 12:26:31;;;;;;;20.05;12.70;;;16.50;52.00;;;;;;5048606;28;20558;-70
2022/01/23 12:29:30;;;;;;;19.70;12.88;;;16.80;52.50;;;;;;5047874;28;20037;-70
2022/01/23 12:32:28;;;;;;;18.35;11.48;;;17.20;51.80;;;;;;5047922;28;20482;-70
2022/01/23 12:34:57;;;;;;;19.50;12.48;;;21.40;47.90;;;;;;5048060;28;20284;-70
2022/01/23 12:37:25;;;;;;;19.48;13.18;;;24.70;41.90;;;;;;5047834;28;20040;-70
2022/01/23 12:40:25;;;;;;;19.52;12.88;;;26.10;39.10;;;;;;5047656;28;20059;-70
2022/01/23 12:43:13;;;;;;;16.92;11.65;;;27.50;37.30;;;;;;5044060;28;20489;-70
2022/01/23 12:45:42;;;;;;;20.63;13.13;;;28.60;35.60;;;;;;5047966;28;20099;-70
2022/01/23 12:48:26;;;;;;;22.65;13.35;;;29.00;35.30;;;;;;5039416;28;20029;-70
2022/01/23 12:51:14;;;;;;;18.27;11.50;;;29.80;34.40;;;;;;5050578;28;20116;-71
2022/01/23 12:53:45;;;;;;;19.17;12.23;;;29.10;34.50;;;;;;5048992;28;20389;-71
2022/01/23 12:56:28;;;;;;;20.65;12.77;;;26.70;34.70;;;;;;5051680;28;20029;-73
2022/01/23 12:59:06;;;;;;;21.67;13.57;;;24.70;36.90;;;;;;5048454;28;20033;-71
2022/01/23 13:01:32;;;;;;;20.63;13.23;;;22.50;39.50;;;;;;5047064;28;20050;-70
2022/01/23 13:04:03;;;;;;;18.75;13.02;;;21.30;41.10;;;;;;5043811;28;20052;-70
2022/01/23 13:12:03;;;;;;;18.58;12.40;;;20.30;43.40;;;;;;5044015;28;20064;-69
2022/01/23 13:15:43;;;;;;;19.83;12.90;;;24.00;42.30;;;;;;5047235;28;20584;-69
2022/01/23 13:31:59;;;;;;;20.63;11.30;;;33.00;32.00;;;;;;5053332;28;20043;-68
2022/01/23 13:34:26;;;;;;;18.27;11.98;;;32.10;31.60;;;;;;5051804;28;20406;-68
2022/01/23 13:37:03;;;;;;;18.95;11.60;;;31.50;31.30;;;;;;5052940;28;20048;-68
2022/01/23 13:39:43;;;;;;;16.27;11.35;;;32.20;31.70;;;;;;5052934;28;20078;-68
2022/01/23 14:04:24;;;;;;;16.17;10.35;;;31.70;30.90;;;;;;5001408;28;20476;-68
2022/01/23 14:06:52;;;;;;;14.00;10.80;;;32.20;31.40;;;;;;5001830;28;20038;-68
2022/01/23 14:09:19;;;;;;;14.68;10.35;;;31.90;31.30;;;;;;4994323;28;20041;-68
2022/01/23 14:11:47;;;;;;;14.60;10.95;;;31.20;31.10;;;;;;5000045;28;20057;-69
2022/01/23 14:14:20;;;;;;;15.90;11.15;;;30.60;31.20;;;;;;4980400;28;20606;-68
2022/01/23 14:16:49;;;;;;;15.00;10.82;;;30.10;31.90;;;;;;5004666;28;20460;-68
2022/01/23 14:19:30;;;;;;;14.88;9.93;;;31.10;32.30;;;;;;4999981;28;20045;-68
2022/01/23 14:22:02;;;;;;;16.27;11.25;;;31.30;31.90;;;;;;5027483;28;20033;-69
2022/01/23 14:24:32;;;;;;;15.40;11.32;;;31.70;31.60;;;;;;5053327;28;20053;-68
2022/01/23 14:27:11;;;;;;;18.15;12.48;;;31.30;31.80;;;;;;5046260;28;20032;-68
2022/01/23 14:30:12;;;;;;;14.73;11.18;;;30.70;31.80;;;;;;5048497;28;20444;-68
2022/01/23 14:32:45;;;;;;;16.17;10.98;;;30.20;31.80;;;;;;5035342;28;20087;-69
2022/01/23 14:35:24;;;;;;;18.75;11.45;;;30.10;32.40;;;;;;5041184;28;20429;-69
2022/01/23 14:37:51;;;;;;;15.02;10.43;;;29.50;32.00;;;;;;5053197;28;20044;-69
2022/01/23 14:40:27;;;;;;;15.75;11.68;;;29.70;31.70;;;;;;5053630;28;20401;-69
2022/01/23 14:43:12;;;;;;;16.90;10.90;;;30.30;32.30;;;;;;5054079;28;20041;-69
2022/01/23 14:45:43;;;;;;;16.60;10.23;;;30.10;32.40;;;;;;5053612;28;20045;-68
2022/01/23 14:48:11;;;;;;;17.00;11.35;;;30.00;32.20;;;;;;5054950;28;20043;-68
2022/01/23 14:50:39;;;;;;;15.32;10.82;;;29.70;32.90;;;;;;5054885;28;20082;-68
2022/01/23 14:53:16;;;;;;;15.68;11.20;;;28.90;33.10;;;;;;5056376;28;20112;-68
2022/01/23 14:55:53;;;;;;;13.85;9.93;;;28.10;33.00;;;;;;5057857;28;20075;-68
2022/01/23 14:58:20;;;;;;;13.70;10.10;;;28.60;33.50;;;;;;5057415;28;20037;-68
2022/01/23 15:00:52;;;;;;;13.55;9.98;;;28.70;33.80;;;;;;5057213;28;20401;-68
2022/01/23 15:03:19;;;;;;;17.48;10.10;;;27.50;33.50;;;;;;5057594;28;20103;-68
2022/01/23 15:05:45;;;;;;;15.65;11.00;;;27.10;34.30;;;;;;5055827;28;20215;-68
2022/01/23 15:08:13;;;;;;;16.08;11.35;;;26.60;34.60;;;;;;5055559;28;20456;-68
2022/01/23 15:10:44;;;;;;;15.60;11.35;;;25.80;35.40;;;;;;5057897;28;20040;-68
2022/01/23 15:13:11;;;;;;;18.48;12.02;;;24.90;36.10;;;;;;5057471;28;20051;-68
2022/01/23 15:15:37;;;;;;;19.45;12.70;;;22.80;37.80;;;;;;5056552;28;20035;-68
2022/01/23 15:18:04;;;;;;;16.58;11.60;;;21.70;39.30;;;;;;5050712;28;20020;-68
2022/01/23 15:20:33;;;;;;;16.45;10.95;;;22.10;39.60;;;;;;5046250;28;20024;-68
2022/01/23 15:22:59;;;;;;;16.30;11.18;;;21.30;39.90;;;;;;5052373;28;20103;-69
2022/01/23 15:25:26;;;;;;;16.33;11.63;;;19.10;42.40;;;;;;5049493;28;20045;-69
2022/01/23 15:27:52;;;;;;;21.00;12.27;;;18.10;45.00;;;;;;5050515;28;20495;-68
2022/01/23 15:30:21;;;;;;;18.17;12.13;;;17.20;45.50;;;;;;5053224;28;20029;-68
2022/01/23 15:32:47;;;;;;;19.95;12.55;;;16.80;46.70;;;;;;5054668;28;20428;-69
2022/01/23 15:35:14;;;;;;;20.35;13.30;;;18.40;46.20;;;;;;5052321;28;20040;-69
2022/01/23 15:37:40;;;;;;;17.88;12.45;;;19.40;44.40;;;;;;5046945;28;20021;-68
2022/01/23 15:40:10;;;;;;;22.17;14.07;;;19.10;44.00;;;;;;5046991;28;20872;-68
2022/01/23 15:42:36;;;;;;;19.92;14.07;;;19.10;44.60;;;;;;5046355;28;20021;-67
2022/01/23 15:45:03;;;;;;;21.05;13.80;;;20.40;43.20;;;;;;5046629;28;20043;-67
2022/01/23 15:47:29;;;;;;;23.08;15.63;;;19.90;42.60;;;;;;5050204;28;20067;-67
2022/01/23 15:49:55;;;;;;;20.90;14.95;;;18.70;44.00;;;;;;5047343;28;20561;-67
2022/01/23 15:52:20;;;;;;;22.45;16.60;;;18.10;45.00;;;;;;5046791;28;20024;-67
2022/01/23 15:54:47;;;;;;;24.55;18.65;;;18.50;46.10;;;;;;5046601;28;20438;-67
2022/01/23 15:57:13;;;;;;;20.73;17.05;;;19.20;45.10;;;;;;5046874;28;20056;-69
2022/01/23 15:59:39;;;;;;;21.80;17.83;;;19.30;44.00;;;;;;5048841;28;20095;-67
2022/01/23 16:02:07;;;;;;;22.45;18.73;;;19.20;44.20;;;;;;5046050;28;20432;-68
2022/01/23 16:04:37;;;;;;;22.40;17.63;;;19.20;44.70;;;;;;5040546;28;20075;-68
2022/01/23 16:07:07;;;;;;;21.63;18.45;;;19.20;44.30;;;;;;5042150;28;20029;-67
2022/01/23 16:09:34;;;;;;;23.45;17.52;;;19.20;44.70;;;;;;5047883;28;20028;-68
2022/01/23 16:12:00;;;;;;;20.45;14.80;;;18.40;44.80;;;;;;5047060;28;20039;-67
2022/01/23 16:14:25;;;;;;;24.30;14.80;;;17.50;46.30;;;;;;5046295;28;20033;-68
2022/01/23 16:16:51;;;;;;;22.85;14.10;;;15.70;49.10;;;;;;5046065;28;20032;-67
2022/01/23 16:19:17;;;;;;;20.92;14.13;;;14.50;51.70;;;;;;5045823;28;20033;-68
2022/01/23 16:21:44;;;;;;;21.08;13.43;;;13.60;53.70;;;;;;5046732;28;20025;-67
2022/01/23 16:24:11;;;;;;;20.55;13.38;;;13.00;55.30;;;;;;5046436;28;20046;-67
2022/01/23 16:26:37;;;;;;;29.80;14.30;;;12.50;57.00;;;;;;5046066;28;20091;-67
2022/01/23 16:29:03;;;;;;;23.55;14.15;;;12.40;57.50;;;;;;5047211;28;20770;-67